Terminal Aerodrome Forecast
Issued by NWS

Current Version | Previous Version | Text Only | Print | Product List | Glossary On
Versions: 1 2 3 4 5 6 7 8 9 10 11 12 13 14 15 16 17 18 19 20 21 22 23 24
869
FTUS43 KTOP 290707 AAC
TAFFOE
TAF AMD
KFOE 290707Z 2907/3006 04013KT 2SM TSRA BR OVC012CB
     FM290900 06013KT 3SM SHRA VCTS OVC008CB
     FM291400 07015G23KT 2SM SHRA BR OVC005
     FM291800 08014KT 2SM SHRA BR VCTS OVC005CB
     FM300000 05009KT 3SM -SHRA BR OVC007=

USA.gov is the U.S. government's official web portal to all federal, state and local government web resources and services.